createdAt,value
2022-07-26T00:03:32.606Z,86
2022-07-26T00:09:08.078Z,86
2022-07-26T00:14:42.616Z,87
2022-07-26T00:21:24.721Z,87
2022-07-26T00:26:59.723Z,88
2022-07-26T00:32:34.741Z,88
2022-07-26T00:39:16.375Z,88
2022-07-26T00:44:51.353Z,89
2022-07-26T00:50:26.366Z,89
2022-07-26T00:56:01.346Z,89
2022-07-26T01:02:44.122Z,89
2022-07-26T01:08:18.501Z,90
2022-07-26T01:13:53.514Z,90
2022-07-26T01:19:35.809Z,90
2022-07-26T01:25:03.493Z,90
2022-07-26T01:30:38.532Z,90
2022-07-26T01:36:14.895Z,91
2022-07-26T01:41:48.561Z,92
2022-07-26T01:48:30.937Z,92
2022-07-26T01:54:06.076Z,93
2022-07-26T01:59:40.708Z,93
2022-07-26T02:05:15.660Z,93
2022-07-26T02:10:50.689Z,93
2022-07-26T02:16:25.724Z,93
2022-07-26T02:22:00.704Z,93
2022-07-26T02:27:35.672Z,93
2022-07-26T02:33:10.658Z,93
2022-07-26T02:38:45.719Z,93
2022-07-26T02:44:20.672Z,94
2022-07-26T02:49:55.725Z,93
2022-07-26T02:55:30.749Z,93
2022-07-26T03:04:21.983Z,93
2022-07-26T03:08:54.445Z,93
2022-07-26T03:14:29.613Z,92
2022-07-26T03:20:04.483Z,93
2022-07-26T03:25:39.503Z,93
2022-07-26T03:31:14.532Z,93
2022-07-26T03:36:49.592Z,93
2022-07-26T03:42:24.492Z,93
2022-07-26T03:47:59.571Z,93
2022-07-26T03:53:34.538Z,93
2022-07-26T03:59:09.514Z,93
2022-07-26T04:04:45.566Z,94
2022-07-26T04:10:19.543Z,94
2022-07-26T04:15:54.574Z,93
2022-07-26T04:21:29.594Z,93
2022-07-26T04:27:04.590Z,93
2022-07-26T04:32:39.571Z,92
2022-07-26T04:38:14.633Z,92
2022-07-26T04:43:49.612Z,92
2022-07-26T04:49:24.587Z,91
2022-07-26T04:54:59.617Z,91
2022-07-26T05:00:51.078Z,91
2022-07-26T05:06:09.662Z,91
2022-07-26T05:11:44.607Z,91
2022-07-26T05:17:19.668Z,90
2022-07-26T05:22:54.662Z,90
2022-07-26T05:28:29.661Z,90
2022-07-26T05:34:05.075Z,90
2022-07-26T05:39:39.720Z,89
2022-07-26T05:45:14.662Z,89
2022-07-26T05:52:01.102Z,90
2022-07-26T05:57:31.301Z,90
2022-07-26T06:03:06.264Z,91
2022-07-26T06:08:42.373Z,92
2022-07-26T06:14:16.313Z,92
2022-07-26T06:19:51.324Z,93
2022-07-26T06:25:26.293Z,93
2022-07-26T06:31:01.350Z,93
2022-07-26T06:36:36.315Z,94
2022-07-26T06:42:11.849Z,94
2022-07-26T06:47:46.332Z,95
2022-07-26T06:53:21.313Z,96
2022-07-26T06:58:56.488Z,97
2022-07-26T07:04:31.406Z,99
2022-07-26T07:10:06.320Z,99
2022-07-26T07:15:41.453Z,99
2022-07-26T07:21:16.397Z,99
2022-07-26T07:26:51.923Z,99
2022-07-26T07:32:26.666Z,99
2022-07-26T07:38:02.192Z,99
2022-07-26T07:43:36.613Z,99
2022-07-26T07:49:12.330Z,99
2022-07-26T07:55:55.388Z,99
2022-07-26T08:01:40.313Z,98
2022-07-26T08:07:03.499Z,98
2022-07-26T08:12:39.143Z,96
2022-07-26T08:18:14.163Z,94
2022-07-26T08:23:48.580Z,92
2022-07-26T08:29:23.560Z,91
2022-07-26T08:35:16.882Z,90
2022-07-26T08:40:33.060Z,90
2022-07-26T08:46:08.152Z,89
2022-07-26T08:51:43.132Z,89
2022-07-26T08:57:18.079Z,88
2022-07-26T09:02:53.097Z,88
2022-07-26T09:08:28.142Z,88
2022-07-26T09:14:03.194Z,87
2022-07-26T09:19:38.131Z,86
2022-07-26T09:25:13.150Z,86
2022-07-26T09:40:51.767Z,85
2022-07-26T09:46:26.634Z,84
2022-07-26T09:52:01.091Z,84
2022-07-26T09:57:36.073Z,84
2022-07-26T10:03:11.091Z,84
2022-07-26T10:08:46.057Z,84
2022-07-26T10:14:21.071Z,85
2022-07-26T10:19:56.098Z,85
2022-07-26T10:25:31.209Z,85
2022-07-26T10:31:06.159Z,86
2022-07-26T10:36:41.165Z,85
2022-07-26T10:42:16.110Z,85
2022-07-26T10:47:51.126Z,85
2022-07-26T10:53:26.189Z,86
2022-07-26T10:59:04.527Z,87
2022-07-26T11:04:36.153Z,88
2022-07-26T11:10:11.164Z,89
2022-07-26T11:15:46.331Z,89
2022-07-26T11:21:21.236Z,88
2022-07-26T11:26:56.166Z,88
2022-07-26T11:32:31.304Z,87
2022-07-26T11:38:12.249Z,86
2022-07-26T11:43:41.225Z,86
2022-07-26T11:49:16.379Z,86
2022-07-26T11:54:51.269Z,86
2022-07-26T12:00:26.233Z,86
2022-07-26T12:06:01.237Z,85
2022-07-26T12:11:36.265Z,84
2022-07-26T12:17:11.293Z,83
2022-07-26T12:22:46.304Z,82
2022-07-26T12:28:21.234Z,82
2022-07-26T12:33:56.465Z,82
2022-07-26T12:39:31.452Z,82
2022-07-26T12:45:06.369Z,82
2022-07-26T12:50:41.383Z,82
2022-07-26T12:56:16.461Z,82
2022-07-26T13:02:58.407Z,82
2022-07-26T13:08:33.444Z,82
2022-07-26T13:14:08.860Z,82
2022-07-26T13:19:43.464Z,82
2022-07-26T13:25:17.935Z,82
2022-07-26T13:30:53.027Z,82
2022-07-26T13:36:27.983Z,82
2022-07-26T13:42:02.977Z,82
2022-07-26T13:47:37.998Z,81
2022-07-26T13:53:12.963Z,81
2022-07-26T13:58:50.266Z,82
2022-07-26T14:04:22.977Z,83
2022-07-26T14:09:58.189Z,84
2022-07-26T14:15:33.005Z,85
2022-07-26T14:21:10.715Z,86
2022-07-26T14:26:43.029Z,86
2022-07-26T14:32:21.576Z,86
2022-07-26T14:37:53.040Z,86
2022-07-26T14:45:42.361Z,86
2022-07-26T14:51:17.404Z,85
2022-07-26T14:56:52.251Z,85
2022-07-26T15:02:27.349Z,84
2022-07-26T15:08:05.996Z,84
2022-07-26T15:13:37.306Z,84
2022-07-26T15:19:12.290Z,83
2022-07-26T15:24:47.369Z,83
2022-07-26T15:30:22.262Z,83
2022-07-26T15:35:58.180Z,85
2022-07-26T15:41:32.423Z,86
2022-07-26T15:48:19.462Z,86
2022-07-26T15:53:49.414Z,86
2022-07-26T15:59:23.911Z,86
2022-07-26T16:08:20.208Z,85
2022-07-26T16:17:16.087Z,84
2022-07-26T16:22:51.049Z,84
2022-07-26T16:29:33.221Z,84
2022-07-26T16:35:08.214Z,84
2022-07-26T16:40:43.267Z,84
2022-07-26T16:46:18.206Z,84
2022-07-26T16:51:53.265Z,84
2022-07-26T16:57:28.208Z,83
2022-07-26T17:03:03.179Z,82
2022-07-26T17:08:38.253Z,82
2022-07-26T17:14:13.253Z,81
2022-07-26T17:19:48.371Z,81
2022-07-26T17:25:23.284Z,81
2022-07-26T17:30:58.220Z,82
2022-07-26T17:36:33.271Z,82
2022-07-26T17:43:14.975Z,83
2022-07-26T17:48:50.172Z,83
2022-07-26T17:54:24.912Z,83
2022-07-26T18:00:05.966Z,83
2022-07-26T18:05:37.140Z,83
2022-07-26T18:11:09.932Z,83
2022-07-26T18:16:44.972Z,84
2022-07-26T18:22:19.987Z,84
2022-07-26T18:29:02.041Z,84
2022-07-26T18:34:37.110Z,84
2022-07-26T18:40:12.163Z,85
2022-07-26T18:46:54.167Z,84
2022-07-26T18:52:32.528Z,84
2022-07-26T18:58:06.893Z,84
2022-07-26T19:03:39.156Z,85
2022-07-26T19:09:14.417Z,85
2022-07-26T19:14:49.242Z,85
2022-07-26T19:20:24.459Z,85
2022-07-26T19:25:59.241Z,85
2022-07-26T19:31:35.438Z,85
2022-07-26T19:37:09.252Z,85
2022-07-26T19:42:44.206Z,84
2022-07-26T19:48:19.363Z,84
2022-07-26T19:53:54.380Z,84
2022-07-26T19:59:29.681Z,85
2022-07-26T20:05:04.408Z,85
2022-07-26T20:10:39.354Z,85
2022-07-26T20:16:14.596Z,86
2022-07-26T20:21:48.914Z,86
2022-07-26T20:27:23.764Z,86
2022-07-26T20:32:58.806Z,87
2022-07-26T20:38:33.825Z,87
2022-07-26T20:44:08.791Z,87
2022-07-26T20:49:43.800Z,87
2022-07-26T20:55:18.813Z,87
2022-07-26T21:00:53.939Z,87
2022-07-26T21:06:29.056Z,87
2022-07-26T21:12:04.333Z,87
2022-07-26T21:18:45.992Z,87
2022-07-26T21:25:28.166Z,87
2022-07-26T21:31:03.142Z,87
2022-07-26T21:36:38.109Z,87
2022-07-26T21:42:13.159Z,87
2022-07-26T21:47:48.087Z,87
2022-07-26T21:53:23.079Z,87
2022-07-26T22:00:05.222Z,88
2022-07-26T22:05:40.245Z,88
2022-07-26T22:11:15.249Z,88
2022-07-26T22:16:50.920Z,88
2022-07-26T22:22:24.743Z,88
2022-07-26T22:29:06.863Z,88
2022-07-26T22:34:41.831Z,88
2022-07-26T22:41:23.905Z,89
2022-07-26T22:46:58.906Z,89
2022-07-26T22:53:41.050Z,89
2022-07-26T22:59:16.061Z,89
2022-07-26T23:04:51.172Z,89
2022-07-26T23:10:26.349Z,89
2022-07-26T23:16:02.043Z,89
2022-07-26T23:22:42.783Z,89
2022-07-26T23:28:35.940Z,89
2022-07-26T23:33:54.482Z,89
2022-07-26T23:39:28.784Z,89
2022-07-26T23:45:02.778Z,90
2022-07-26T23:50:37.823Z,90
2022-07-26T23:56:12.857Z,90
